Time;durP1;ratioP1;P1;durP2;ratioP2;P2;SDS_P1;SDS_P2;PMS_P1;PMS_P2;Temp;Humidity;BMP_temperature;BMP_pressure;BME280_temperature;BME280_humidity;BME280_pressure;Samples;Min_cycle;Max_cycle;Signal;HPM_P1;HPM_P2
2022/08/31 00:04:54;;;;;;;2.50;1.15;;;17.10;99.90;;;;;;5070242;28;20284;-79
2022/08/31 00:07:21;;;;;;;1.17;1.05;;;17.10;99.90;;;;;;5070607;28;20221;-80
2022/08/31 00:09:48;;;;;;;1.90;1.20;;;17.10;99.90;;;;;;5061158;28;20197;-79
2022/08/31 00:12:15;;;;;;;3.25;1.27;;;17.10;99.90;;;;;;5062917;28;20201;-78
2022/08/31 00:14:43;;;;;;;3.33;0.98;;;17.10;99.90;;;;;;5054129;28;20227;-79
2022/08/31 00:17:10;;;;;;;3.53;1.00;;;17.00;99.90;;;;;;5054654;28;20224;-79
2022/08/31 00:19:37;;;;;;;1.65;1.17;;;17.00;99.90;;;;;;5072187;28;20201;-79
2022/08/31 00:22:04;;;;;;;1.88;1.13;;;17.00;99.90;;;;;;5072445;28;20219;-79
2022/08/31 00:24:32;;;;;;;4.10;1.52;;;16.90;99.90;;;;;;5072908;28;20211;-79
2022/08/31 00:26:59;;;;;;;3.17;1.00;;;16.90;99.90;;;;;;5072749;28;20834;-78
2022/08/31 00:29:26;;;;;;;1.60;1.10;;;16.90;99.90;;;;;;5072216;28;20206;-80
2022/08/31 00:31:54;;;;;;;2.22;0.82;;;16.90;99.90;;;;;;5062444;28;20683;-80
2022/08/31 00:34:22;;;;;;;1.08;0.90;;;16.90;99.90;;;;;;5053045;28;20194;-79
2022/08/31 00:36:49;;;;;;;1.20;1.00;;;16.90;99.90;;;;;;5061233;28;20201;-80
2022/08/31 00:39:15;;;;;;;2.03;0.80;;;16.80;99.90;;;;;;5072391;28;20722;-80
2022/08/31 00:41:43;;;;;;;1.50;1.20;;;16.80;99.90;;;;;;5072155;28;20219;-79
2022/08/31 00:44:11;;;;;;;3.33;1.10;;;16.80;99.90;;;;;;5072634;28;20216;-80
2022/08/31 00:46:40;;;;;;;1.90;1.13;;;16.80;99.90;;;;;;5072483;28;20625;-79
2022/08/31 00:49:11;;;;;;;1.23;0.98;;;16.80;99.90;;;;;;5071953;28;20597;-78
2022/08/31 00:51:44;;;;;;;2.05;1.23;;;16.80;99.90;;;;;;5072172;28;20597;-80
2022/08/31 00:54:14;;;;;;;1.27;1.10;;;16.90;99.90;;;;;;5072176;28;20605;-80
2022/08/31 00:56:43;;;;;;;1.60;1.05;;;16.90;99.90;;;;;;5072087;28;20986;-78
2022/08/31 00:59:11;;;;;;;1.52;1.25;;;16.80;99.90;;;;;;5057802;28;20232;-79
2022/08/31 01:01:38;;;;;;;2.25;1.20;;;16.80;99.90;;;;;;5052377;28;20204;-78
2022/08/31 01:04:05;;;;;;;2.83;1.35;;;16.80;99.90;;;;;;5054318;28;20206;-80
2022/08/31 01:06:34;;;;;;;1.45;1.08;;;16.80;99.90;;;;;;5071920;28;20225;-79
2022/08/31 01:09:02;;;;;;;3.22;1.30;;;16.80;99.90;;;;;;5072205;28;20189;-80
2022/08/31 01:11:30;;;;;;;2.05;1.00;;;16.80;99.90;;;;;;5071316;28;20199;-79
2022/08/31 01:13:57;;;;;;;1.13;1.02;;;16.70;99.90;;;;;;5072010;28;20527;-80
2022/08/31 01:16:27;;;;;;;1.58;1.05;;;16.70;99.90;;;;;;5071973;28;20296;-79
2022/08/31 01:18:58;;;;;;;2.17;1.00;;;16.70;99.90;;;;;;5071447;28;20208;-79
2022/08/31 01:21:28;;;;;;;1.35;0.98;;;16.70;99.90;;;;;;5071986;28;20215;-80
2022/08/31 01:23:58;;;;;;;2.15;1.30;;;16.60;99.90;;;;;;5071716;28;20561;-79
2022/08/31 01:26:28;;;;;;;1.60;0.95;;;16.70;99.90;;;;;;5071725;28;20225;-80
2022/08/31 01:28:59;;;;;;;2.58;1.15;;;16.60;99.90;;;;;;5071379;28;20197;-79
2022/08/31 01:31:28;;;;;;;1.77;0.90;;;16.60;99.90;;;;;;5062600;28;20230;-80
2022/08/31 01:33:56;;;;;;;2.22;1.17;;;16.60;99.90;;;;;;5051729;28;20202;-80
2022/08/31 01:36:23;;;;;;;1.15;1.05;;;16.50;99.90;;;;;;5061876;28;20209;-81
2022/08/31 01:38:50;;;;;;;1.10;1.00;;;16.60;99.90;;;;;;5070246;28;20221;-79
2022/08/31 01:41:18;;;;;;;1.27;1.13;;;16.60;99.90;;;;;;5071722;28;20194;-79
2022/08/31 01:43:45;;;;;;;1.48;1.20;;;16.60;99.90;;;;;;5071716;28;20457;-79
2022/08/31 01:46:13;;;;;;;1.85;1.30;;;16.50;99.90;;;;;;5071306;28;20215;-78
2022/08/31 01:48:41;;;;;;;2.83;1.10;;;16.50;99.90;;;;;;5071606;28;20197;-79
2022/08/31 01:51:09;;;;;;;2.10;1.13;;;16.50;99.90;;;;;;5071410;28;20201;-79
2022/08/31 01:53:36;;;;;;;2.65;1.33;;;16.50;99.90;;;;;;5070804;28;20654;-79
2022/08/31 01:56:04;;;;;;;2.83;1.30;;;16.60;99.90;;;;;;5051866;28;20236;-79
2022/08/31 01:58:32;;;;;;;1.85;1.10;;;16.60;99.90;;;;;;5051418;28;20206;-79
2022/08/31 02:00:59;;;;;;;1.40;0.80;;;16.60;99.90;;;;;;5051288;28;20206;-79
2022/08/31 02:03:26;;;;;;;1.35;0.95;;;16.60;99.90;;;;;;5051941;28;20237;-79
2022/08/31 02:05:53;;;;;;;2.00;1.20;;;16.50;99.90;;;;;;5051408;28;20212;-79
2022/08/31 02:08:20;;;;;;;1.10;1.00;;;16.60;99.90;;;;;;5050374;28;20260;-80
2022/08/31 02:10:47;;;;;;;1.63;1.40;;;16.50;99.90;;;;;;5051924;28;20229;-81
2022/08/31 02:13:14;;;;;;;1.40;1.30;;;16.60;99.90;;;;;;5050675;28;20295;-79
2022/08/31 02:15:43;;;;;;;3.35;1.63;;;16.50;99.90;;;;;;5051690;28;20213;-79
2022/08/31 02:18:09;;;;;;;1.58;1.23;;;16.60;99.90;;;;;;5052148;28;20212;-80
2022/08/31 02:20:36;;;;;;;1.33;1.08;;;16.60;99.90;;;;;;5050269;28;20233;-80
2022/08/31 02:23:03;;;;;;;2.95;1.35;;;16.60;99.90;;;;;;5051286;28;20205;-78
2022/08/31 02:25:31;;;;;;;1.92;1.35;;;16.60;99.90;;;;;;5051116;28;20212;-79
2022/08/31 02:27:57;;;;;;;2.17;1.10;;;16.60;99.90;;;;;;5064767;28;20544;-79
2022/08/31 02:30:24;;;;;;;2.78;1.38;;;16.50;99.90;;;;;;5071208;28;20205;-80
2022/08/31 02:32:53;;;;;;;3.35;1.52;;;16.50;99.90;;;;;;5057851;28;20225;-79
2022/08/31 02:35:20;;;;;;;2.80;1.25;;;16.50;99.90;;;;;;5050301;28;20203;-79
2022/08/31 02:37:47;;;;;;;1.83;1.10;;;16.50;99.90;;;;;;5051252;28;20202;-79
2022/08/31 02:40:14;;;;;;;2.58;1.67;;;16.50;99.90;;;;;;5051170;28;20238;-80
2022/08/31 02:42:40;;;;;;;2.05;1.55;;;16.50;99.90;;;;;;5052164;28;20197;-80
2022/08/31 02:45:08;;;;;;;1.65;1.38;;;16.50;99.90;;;;;;5059805;28;20208;-85
2022/08/31 02:47:35;;;;;;;1.45;1.35;;;16.40;99.90;;;;;;5074729;28;20613;-80
2022/08/31 02:50:06;;;;;;;1.50;1.10;;;16.50;99.90;;;;;;5074098;28;20199;-79
2022/08/31 02:52:32;;;;;;;1.05;0.93;;;16.50;99.90;;;;;;5074803;28;20201;-79
2022/08/31 02:54:59;;;;;;;1.52;1.13;;;16.50;99.90;;;;;;5056386;28;20281;-79
2022/08/31 02:57:26;;;;;;;1.13;1.00;;;16.50;99.90;;;;;;5053797;28;20198;-79
2022/08/31 02:59:53;;;;;;;2.00;1.25;;;16.50;99.90;;;;;;5054728;28;20582;-80
2022/08/31 03:02:22;;;;;;;1.48;1.00;;;16.40;99.90;;;;;;5054360;28;20198;-80
2022/08/31 03:04:48;;;;;;;1.27;1.17;;;16.40;99.90;;;;;;5065395;28;20608;-78
2022/08/31 03:07:17;;;;;;;2.72;1.00;;;16.40;99.90;;;;;;5074634;28;20316;-78
2022/08/31 03:09:44;;;;;;;1.13;1.00;;;16.40;99.90;;;;;;5068614;28;20201;-79
2022/08/31 03:12:11;;;;;;;1.10;1.00;;;16.40;99.90;;;;;;5054502;28;20616;-79
2022/08/31 03:14:38;;;;;;;2.15;1.05;;;16.40;99.90;;;;;;5054390;28;20202;-83
2022/08/31 03:17:05;;;;;;;1.38;0.98;;;16.40;99.90;;;;;;5053521;28;20206;-79
2022/08/31 03:19:32;;;;;;;3.22;1.45;;;16.40;99.90;;;;;;5070667;28;20213;-79
2022/08/31 03:21:58;;;;;;;2.90;1.10;;;16.40;99.90;;;;;;5075527;28;20609;-78
2022/08/31 03:24:27;;;;;;;3.70;1.40;;;16.30;99.90;;;;;;5074250;28;20333;-79
2022/08/31 03:26:54;;;;;;;1.25;1.15;;;16.30;99.90;;;;;;5062782;28;20213;-78
2022/08/31 03:29:20;;;;;;;2.35;1.10;;;16.30;99.90;;;;;;5055055;28;20204;-77
2022/08/31 03:31:47;;;;;;;1.20;1.10;;;16.20;99.90;;;;;;5053312;28;20649;-77
2022/08/31 03:34:14;;;;;;;2.05;1.35;;;16.20;99.90;;;;;;5053985;28;20205;-76
2022/08/31 03:36:41;;;;;;;2.08;1.20;;;16.20;99.90;;;;;;5053795;28;20507;-77
2022/08/31 03:39:08;;;;;;;1.60;1.10;;;16.20;99.90;;;;;;5053992;28;20672;-77
2022/08/31 03:41:36;;;;;;;1.20;1.00;;;16.10;99.90;;;;;;5053883;28;20253;-77
2022/08/31 03:44:04;;;;;;;1.45;1.10;;;16.10;99.90;;;;;;5054042;28;20195;-77
2022/08/31 03:46:32;;;;;;;3.80;1.20;;;16.10;99.90;;;;;;5053741;28;20289;-75
2022/08/31 03:49:00;;;;;;;1.27;1.17;;;16.10;99.90;;;;;;5053501;28;20721;-77
2022/08/31 03:51:27;;;;;;;1.58;1.08;;;16.10;99.90;;;;;;5074193;28;20246;-77
2022/08/31 03:53:54;;;;;;;2.17;1.20;;;16.00;99.90;;;;;;5093360;28;20188;-76
2022/08/31 03:56:21;;;;;;;1.38;1.10;;;16.00;99.90;;;;;;5069325;28;20304;-76
2022/08/31 03:58:50;;;;;;;1.25;1.13;;;16.00;99.90;;;;;;5052755;28;20239;-78
2022/08/31 04:01:16;;;;;;;2.10;1.13;;;15.90;99.90;;;;;;5054581;28;20201;-77
2022/08/31 04:03:43;;;;;;;1.10;1.00;;;15.90;99.90;;;;;;5053958;28;20202;-78
2022/08/31 04:06:12;;;;;;;1.20;1.00;;;16.00;99.90;;;;;;5053139;28;20194;-77
2022/08/31 04:08:39;;;;;;;1.20;0.90;;;16.00;99.90;;;;;;5053655;28;20221;-77
2022/08/31 04:11:09;;;;;;;1.90;1.00;;;15.90;99.90;;;;;;5062612;28;20205;-78
2022/08/31 04:13:36;;;;;;;2.37;1.17;;;16.00;99.90;;;;;;5072406;28;20247;-79
2022/08/31 04:16:06;;;;;;;2.07;0.73;;;15.90;99.90;;;;;;5073508;28;20201;-77
2022/08/31 04:18:33;;;;;;;2.00;1.02;;;15.90;99.90;;;;;;5069693;28;20203;-77
2022/08/31 04:21:00;;;;;;;1.08;0.80;;;16.00;99.90;;;;;;5069034;28;20208;-78
2022/08/31 04:23:28;;;;;;;4.93;1.25;;;16.00;99.90;;;;;;5062837;28;20202;-80
2022/08/31 04:25:56;;;;;;;1.25;1.15;;;16.00;99.90;;;;;;5062220;28;20233;-79
2022/08/31 04:28:23;;;;;;;1.38;0.90;;;16.00;99.90;;;;;;5053633;28;20214;-78
2022/08/31 04:30:50;;;;;;;1.10;0.70;;;16.00;99.90;;;;;;5060103;28;20288;-77
2022/08/31 04:33:18;;;;;;;1.80;0.90;;;16.00;99.90;;;;;;5054421;28;20626;-77
2022/08/31 04:35:45;;;;;;;1.27;0.90;;;16.00;99.90;;;;;;5063058;28;20212;-78
2022/08/31 04:38:12;;;;;;;1.67;1.20;;;15.90;99.90;;;;;;5070620;28;20236;-77
2022/08/31 04:40:40;;;;;;;1.75;0.70;;;15.90;99.90;;;;;;5072427;28;20233;-77
2022/08/31 04:43:08;;;;;;;1.88;0.90;;;15.90;99.90;;;;;;5072778;28;20208;-77
2022/08/31 04:45:34;;;;;;;1.60;0.70;;;15.90;99.90;;;;;;5073166;28;20284;-76
2022/08/31 04:48:01;;;;;;;1.05;0.73;;;15.90;99.90;;;;;;5072039;28;20251;-76
2022/08/31 04:50:30;;;;;;;1.03;0.70;;;15.90;99.90;;;;;;5066929;28;20205;-76
2022/08/31 04:52:56;;;;;;;3.67;0.90;;;15.90;99.90;;;;;;5070781;28;20205;-79
2022/08/31 04:55:23;;;;;;;1.02;0.80;;;15.90;99.90;;;;;;5069149;28;20211;-78
2022/08/31 04:57:50;;;;;;;0.70;0.60;;;15.90;99.90;;;;;;5071920;28;20199;-78
2022/08/31 05:00:17;;;;;;;1.90;0.73;;;16.00;99.90;;;;;;5065044;28;20259;-78
2022/08/31 05:02:44;;;;;;;1.60;0.70;;;16.00;99.90;;;;;;5071986;28;20212;-80
2022/08/31 05:05:11;;;;;;;1.50;0.90;;;16.00;99.90;;;;;;5071928;28;20197;-78
2022/08/31 05:07:39;;;;;;;1.58;0.77;;;16.00;99.90;;;;;;5071688;28;20221;-79
2022/08/31 05:10:06;;;;;;;0.70;0.70;;;16.00;99.90;;;;;;5072037;28;20243;-78
2022/08/31 05:12:33;;;;;;;0.70;0.70;;;16.00;99.90;;;;;;5071891;28;20516;-79
2022/08/31 05:15:00;;;;;;;0.50;0.50;;;16.00;99.90;;;;;;5072049;28;20676;-81
2022/08/31 05:17:27;;;;;;;0.88;0.60;;;16.00;99.90;;;;;;5064864;28;20208;-79
2022/08/31 05:19:54;;;;;;;1.88;0.70;;;16.00;99.90;;;;;;5052152;28;20205;-77
2022/08/31 05:22:21;;;;;;;0.95;0.50;;;16.00;99.90;;;;;;5052634;28;20217;-78
2022/08/31 05:24:49;;;;;;;0.50;0.50;;;16.00;99.90;;;;;;5051453;28;20208;-80
2022/08/31 05:27:16;;;;;;;0.70;0.70;;;15.90;99.90;;;;;;5052021;28;20205;-81
2022/08/31 05:29:43;;;;;;;1.55;0.57;;;15.90;99.90;;;;;;5051804;28;20228;-80
2022/08/31 05:32:10;;;;;;;2.20;0.67;;;16.00;99.90;;;;;;5051610;28;20518;-79
2022/08/31 05:34:37;;;;;;;1.03;0.50;;;15.90;99.90;;;;;;5051318;28;20217;-78
2022/08/31 05:37:04;;;;;;;1.13;0.63;;;15.90;99.90;;;;;;5052268;28;20194;-79
2022/08/31 05:39:32;;;;;;;1.17;0.43;;;16.00;99.90;;;;;;5051509;28;20323;-79
2022/08/31 05:42:00;;;;;;;1.00;0.43;;;16.00;99.90;;;;;;5069985;28;20557;-79
2022/08/31 05:44:27;;;;;;;0.55;0.50;;;15.90;99.90;;;;;;5071231;28;20204;-79
2022/08/31 05:46:54;;;;;;;0.70;0.60;;;15.90;99.90;;;;;;5071925;28;20190;-78
2022/08/31 05:49:21;;;;;;;0.88;0.50;;;15.90;99.90;;;;;;5071351;28;20249;-78
2022/08/31 05:51:47;;;;;;;0.60;0.50;;;16.00;99.90;;;;;;5071071;28;20308;-80
2022/08/31 05:54:16;;;;;;;0.60;0.60;;;16.00;99.90;;;;;;5071577;28;20229;-79
2022/08/31 05:56:44;;;;;;;1.63;0.43;;;16.00;99.90;;;;;;5071786;28;20194;-81
2022/08/31 05:59:13;;;;;;;1.23;0.85;;;16.00;99.90;;;;;;5052828;28;20206;-79
2022/08/31 06:01:41;;;;;;;2.17;0.73;;;16.00;99.90;;;;;;5058584;28;20205;-81
2022/08/31 06:04:09;;;;;;;2.37;0.90;;;15.90;99.90;;;;;;5071727;28;20217;-80
2022/08/31 06:06:37;;;;;;;0.95;0.47;;;15.90;99.90;;;;;;5071395;28;20212;-79
2022/08/31 06:09:05;;;;;;;1.10;0.60;;;15.90;99.90;;;;;;5071385;28;20213;-81
2022/08/31 06:11:33;;;;;;;3.60;0.80;;;15.90;99.90;;;;;;5071513;28;20766;-82
2022/08/31 06:14:02;;;;;;;1.50;0.50;;;15.90;99.90;;;;;;5059335;28;20206;-79
2022/08/31 06:16:31;;;;;;;0.77;0.77;;;15.90;99.90;;;;;;5051698;28;20201;-79
2022/08/31 06:18:58;;;;;;;2.75;0.70;;;15.90;99.90;;;;;;5055367;28;20190;-79
2022/08/31 06:21:29;;;;;;;0.77;0.47;;;15.90;99.90;;;;;;5054564;28;20852;-80
2022/08/31 06:23:57;;;;;;;2.07;0.80;;;16.00;99.90;;;;;;5055246;28;20206;-79
2022/08/31 06:26:26;;;;;;;1.92;0.80;;;16.00;99.90;;;;;;5054867;28;20206;-80
2022/08/31 06:28:54;;;;;;;1.63;0.90;;;16.10;99.90;;;;;;5055272;28;20239;-79
2022/08/31 06:31:25;;;;;;;0.70;0.70;;;16.10;99.90;;;;;;5068485;28;20240;-81
2022/08/31 06:33:54;;;;;;;1.08;0.73;;;16.20;99.90;;;;;;5075072;28;20690;-78
2022/08/31 06:36:24;;;;;;;0.88;0.75;;;16.20;99.90;;;;;;5068081;28;20209;-78
2022/08/31 06:38:51;;;;;;;1.95;0.90;;;16.20;99.90;;;;;;5071406;28;20536;-79
2022/08/31 06:41:21;;;;;;;3.30;0.88;;;16.20;99.90;;;;;;5073789;28;20232;-80
2022/08/31 06:43:49;;;;;;;1.33;0.80;;;16.20;99.90;;;;;;5074448;28;20213;-78
2022/08/31 06:46:17;;;;;;;1.95;0.60;;;16.30;99.90;;;;;;5074184;28;20316;-80
2022/08/31 06:48:45;;;;;;;1.97;0.80;;;16.30;99.90;;;;;;5073706;28;20522;-80
2022/08/31 06:51:13;;;;;;;2.65;0.82;;;16.40;99.90;;;;;;5065629;28;20210;-79
2022/08/31 06:53:41;;;;;;;3.17;0.77;;;16.40;99.90;;;;;;5054823;28;20285;-79
2022/08/31 06:56:11;;;;;;;3.83;0.85;;;16.40;99.90;;;;;;5054921;28;20209;-80
2022/08/31 06:58:38;;;;;;;1.67;0.63;;;16.40;99.90;;;;;;5054546;28;20190;-79
2022/08/31 07:01:06;;;;;;;2.75;0.70;;;16.50;99.90;;;;;;5054288;28;20201;-79
2022/08/31 07:03:36;;;;;;;0.82;0.70;;;16.50;99.90;;;;;;5063761;28;20197;-79
2022/08/31 07:06:08;;;;;;;0.70;0.70;;;16.60;99.90;;;;;;5074217;28;20200;-78
2022/08/31 07:08:38;;;;;;;2.58;0.80;;;16.70;99.90;;;;;;5072439;28;20221;-79
2022/08/31 07:11:10;;;;;;;1.27;0.75;;;16.70;99.90;;;;;;5074155;28;20304;-79
2022/08/31 07:13:37;;;;;;;2.10;0.80;;;16.80;99.90;;;;;;5063815;28;20285;-79
2022/08/31 07:16:06;;;;;;;2.10;0.70;;;16.80;99.90;;;;;;5053716;28;20201;-80
2022/08/31 07:18:33;;;;;;;2.05;0.77;;;16.90;99.90;;;;;;5054410;28;20275;-82
2022/08/31 07:21:12;;;;;;;0.60;0.60;;;17.00;99.90;;;;;;5055085;28;20851;-79
2022/08/31 07:23:41;;;;;;;1.85;0.80;;;17.20;99.90;;;;;;5053780;28;20194;-80
2022/08/31 07:26:10;;;;;;;1.30;0.77;;;17.30;99.90;;;;;;5054471;28;20190;-80
2022/08/31 07:28:42;;;;;;;0.60;0.50;;;17.50;99.90;;;;;;5057567;28;20209;-79
2022/08/31 07:31:10;;;;;;;2.72;0.70;;;17.70;99.90;;;;;;5073912;28;20201;-81
2022/08/31 07:33:38;;;;;;;3.38;0.60;;;17.90;99.90;;;;;;5073391;28;20203;-80
2022/08/31 07:36:09;;;;;;;1.17;0.55;;;18.00;99.90;;;;;;5074460;28;20288;-80
2022/08/31 07:44:09;;;;;;;2.17;0.68;;;18.10;99.90;;;;;;5070679;28;20514;-81
2022/08/31 07:46:36;;;;;;;0.88;0.70;;;18.20;99.90;;;;;;5073788;28;20201;-77
2022/08/31 07:49:11;;;;;;;1.33;0.50;;;18.10;99.90;;;;;;5072980;28;20243;-79
2022/08/31 07:51:42;;;;;;;1.90;0.75;;;18.30;99.90;;;;;;5072178;28;20497;-78
2022/08/31 07:54:10;;;;;;;2.40;0.90;;;18.40;99.90;;;;;;5073860;28;20524;-80
2022/08/31 07:56:38;;;;;;;2.08;0.65;;;18.50;99.90;;;;;;5073710;28;20204;-82
2022/08/31 07:59:06;;;;;;;1.15;0.80;;;18.70;99.90;;;;;;5072380;28;20208;-81
2022/08/31 08:01:33;;;;;;;1.55;0.70;;;18.90;99.90;;;;;;5073297;28;20255;-80
2022/08/31 08:04:01;;;;;;;1.67;0.50;;;19.10;99.90;;;;;;5073805;28;20205;-81
2022/08/31 08:06:29;;;;;;;2.10;0.70;;;19.30;99.90;;;;;;5072726;28;20606;-80
2022/08/31 08:09:05;;;;;;;0.93;0.50;;;19.60;99.90;;;;;;5065655;28;20251;-81
2022/08/31 08:11:34;;;;;;;1.30;0.70;;;19.80;99.90;;;;;;5052560;28;20209;-79
2022/08/31 08:14:02;;;;;;;0.90;0.50;;;20.10;99.90;;;;;;5052854;28;20206;-79
2022/08/31 08:16:29;;;;;;;1.25;0.50;;;20.30;99.90;;;;;;5054233;28;20216;-81
2022/08/31 08:18:56;;;;;;;1.48;0.70;;;20.50;99.90;;;;;;5052455;28;20571;-80
2022/08/31 08:21:23;;;;;;;0.90;0.70;;;20.60;99.90;;;;;;5053057;28;20221;-78
2022/08/31 08:23:50;;;;;;;2.05;0.80;;;20.80;99.90;;;;;;5062635;28;20189;-80
2022/08/31 08:26:17;;;;;;;2.53;0.93;;;21.00;99.90;;;;;;5073095;28;20201;-79
2022/08/31 08:28:43;;;;;;;1.40;0.70;;;21.00;99.90;;;;;;5072934;28;20472;-78
2022/08/31 08:31:15;;;;;;;1.25;0.75;;;21.20;99.90;;;;;;5058367;28;20280;-79
2022/08/31 08:33:42;;;;;;;3.53;0.85;;;21.40;99.90;;;;;;5051489;28;20635;-78
2022/08/31 08:36:09;;;;;;;1.48;0.82;;;21.50;99.90;;;;;;5053020;28;20213;-79
2022/08/31 08:38:38;;;;;;;3.38;0.90;;;21.70;99.90;;;;;;5052195;28;20746;-79
2022/08/31 08:41:12;;;;;;;2.53;0.63;;;21.70;99.90;;;;;;5060004;28;20196;-82
2022/08/31 08:43:42;;;;;;;1.23;0.68;;;21.70;99.90;;;;;;5072200;28;20597;-78
2022/08/31 08:46:13;;;;;;;2.83;0.85;;;22.00;99.90;;;;;;5052733;28;20205;-78
2022/08/31 08:48:41;;;;;;;1.52;0.60;;;21.90;99.90;;;;;;5052155;28;20208;-76
2022/08/31 08:51:13;;;;;;;3.53;0.82;;;22.00;99.90;;;;;;5052661;28;20725;-79
2022/08/31 08:53:42;;;;;;;2.38;0.70;;;22.20;99.90;;;;;;5053091;28;20221;-80
2022/08/31 08:56:10;;;;;;;1.67;0.77;;;22.30;99.90;;;;;;5053046;28;20201;-78
2022/08/31 08:58:38;;;;;;;1.00;0.60;;;22.30;99.90;;;;;;5053000;28;20206;-77
2022/08/31 09:01:10;;;;;;;0.70;0.70;;;22.40;99.90;;;;;;5052578;28;20202;-79
2022/08/31 09:03:50;;;;;;;1.38;0.70;;;22.30;99.90;;;;;;5053180;28;20197;-79
2022/08/31 09:06:27;;;;;;;1.30;0.82;;;22.40;99.90;;;;;;5054003;28;20198;-79
2022/08/31 09:09:11;;;;;;;2.08;0.60;;;22.60;99.90;;;;;;5055834;28;20222;-79
2022/08/31 09:11:49;;;;;;;1.83;0.60;;;22.70;99.90;;;;;;5052725;28;20217;-79
2022/08/31 09:14:28;;;;;;;1.50;0.60;;;22.90;99.90;;;;;;5053952;28;20201;-79
2022/08/31 09:17:01;;;;;;;2.28;0.70;;;23.10;99.90;;;;;;5066376;28;20196;-77
2022/08/31 09:19:57;;;;;;;1.40;0.70;;;23.10;99.90;;;;;;5058629;28;20229;-79
2022/08/31 09:22:19;;;;;;;1.08;0.90;;;23.10;99.90;;;;;;5052305;28;20206;-79
2022/08/31 09:24:51;;;;;;;1.20;0.60;;;23.10;99.90;;;;;;5053816;28;20193;-80
2022/08/31 09:27:42;;;;;;;1.42;0.50;;;23.20;99.90;;;;;;5055149;28;20200;-78
2022/08/31 09:30:10;;;;;;;1.50;0.77;;;23.30;99.90;;;;;;5066106;28;20221;-77
2022/08/31 09:32:37;;;;;;;2.92;0.73;;;23.10;99.90;;;;;;5076370;28;20213;-81
2022/08/31 09:35:08;;;;;;;2.40;0.63;;;23.10;99.90;;;;;;5077049;28;20205;-80
2022/08/31 09:37:40;;;;;;;4.43;0.85;;;23.30;99.90;;;;;;5056805;28;20190;-76
2022/08/31 09:40:15;;;;;;;0.90;0.73;;;23.30;99.90;;;;;;5053216;28;20237;-78
2022/08/31 09:42:44;;;;;;;0.95;0.70;;;23.20;99.90;;;;;;5052556;28;20197;-77
2022/08/31 09:45:28;;;;;;;3.03;0.88;;;23.20;99.90;;;;;;5065218;28;20197;-78
2022/08/31 09:48:00;;;;;;;1.20;0.90;;;23.20;99.90;;;;;;5071964;28;20201;-79
2022/08/31 09:50:35;;;;;;;1.25;1.00;;;23.10;99.90;;;;;;5051641;28;20518;-78
2022/08/31 09:56:16;;;;;;;1.98;0.85;;;23.10;99.90;;;;;;5065737;28;20200;-78
2022/08/31 09:58:46;;;;;;;1.88;0.95;;;23.20;99.90;;;;;;5071557;28;20200;-78
2022/08/31 10:01:22;;;;;;;2.58;1.10;;;23.20;99.90;;;;;;5057477;28;20243;-82
2022/08/31 10:03:50;;;;;;;2.60;1.00;;;23.30;99.90;;;;;;5066284;28;20185;-79
2022/08/31 10:06:44;;;;;;;1.23;0.77;;;23.20;99.90;;;;;;5068158;28;20193;-80
2022/08/31 10:09:18;;;;;;;2.13;0.85;;;23.20;99.90;;;;;;5068963;28;20268;-78
2022/08/31 10:11:46;;;;;;;0.70;0.70;;;23.30;99.90;;;;;;5068835;28;20210;-78
2022/08/31 10:14:25;;;;;;;1.73;0.90;;;23.30;99.90;;;;;;5066735;28;20265;-79
2022/08/31 10:16:56;;;;;;;2.75;0.80;;;23.40;99.90;;;;;;5065949;28;20228;-78
2022/08/31 10:19:29;;;;;;;0.82;0.80;;;23.30;99.90;;;;;;5060943;28;20260;-82
2022/08/31 10:22:02;;;;;;;2.85;0.88;;;23.40;99.90;;;;;;5054006;28;20288;-81
2022/08/31 10:24:37;;;;;;;2.90;0.60;;;23.40;99.90;;;;;;5055936;28;20196;-79
2022/08/31 10:27:15;;;;;;;2.20;0.70;;;23.40;99.90;;;;;;5059889;28;20220;-80
2022/08/31 10:29:48;;;;;;;0.82;0.65;;;23.50;99.90;;;;;;5058646;28;20794;-79
2022/08/31 10:32:27;;;;;;;1.50;0.82;;;23.70;99.90;;;;;;5057058;28;20217;-79
2022/08/31 10:35:04;;;;;;;2.25;0.80;;;23.80;99.90;;;;;;5052005;28;20190;-81
2022/08/31 10:37:55;;;;;;;2.55;0.77;;;23.90;99.90;;;;;;5051727;28;20275;-78
2022/08/31 10:40:30;;;;;;;0.95;0.60;;;24.00;99.90;;;;;;5050638;28;20237;-79
2022/08/31 10:43:09;;;;;;;0.80;0.50;;;24.00;99.90;;;;;;5056297;28;20201;-80
2022/08/31 10:45:42;;;;;;;0.90;0.60;;;23.70;99.90;;;;;;5072151;28;20294;-80
2022/08/31 10:48:11;;;;;;;1.67;0.75;;;23.50;99.90;;;;;;5071391;28;20209;-81
2022/08/31 10:50:45;;;;;;;1.25;0.70;;;23.40;99.90;;;;;;5061511;28;20266;-82
2022/08/31 10:53:31;;;;;;;1.80;0.70;;;23.40;99.90;;;;;;5051422;28;20195;-78
2022/08/31 10:56:11;;;;;;;3.95;0.68;;;23.40;99.90;;;;;;5051787;28;20189;-79
2022/08/31 10:58:53;;;;;;;2.83;0.75;;;23.50;99.90;;;;;;5051581;28;20436;-81
2022/08/31 11:01:26;;;;;;;1.08;0.60;;;23.80;99.90;;;;;;5059050;28;20200;-79
2022/08/31 11:04:18;;;;;;;2.17;0.65;;;24.00;99.90;;;;;;5072559;28;20205;-78
2022/08/31 11:06:51;;;;;;;1.08;0.60;;;24.00;99.90;;;;;;5074833;28;20190;-80
2022/08/31 11:09:23;;;;;;;6.40;1.27;;;24.20;99.90;;;;;;5074536;28;20201;-85
2022/08/31 11:12:03;;;;;;;3.63;0.70;;;24.30;99.90;;;;;;5075452;28;20196;-82
2022/08/31 11:14:49;;;;;;;8.73;0.90;;;24.30;99.90;;;;;;5075015;28;20274;-82
2022/08/31 11:17:43;;;;;;;1.35;0.60;;;24.30;99.90;;;;;;5072991;28;20292;-80
2022/08/31 11:20:39;;;;;;;3.45;0.70;;;24.30;99.90;;;;;;5047904;28;20280;-82
2022/08/31 11:23:31;;;;;;;1.75;0.75;;;24.50;99.90;;;;;;5054512;28;20194;-80
2022/08/31 11:26:40;;;;;;;2.00;0.85;;;24.80;99.90;;;;;;5054580;28;20487;-79
2022/08/31 11:29:15;;;;;;;1.25;0.85;;;25.00;99.90;;;;;;5053586;28;20202;-79
2022/08/31 11:31:43;;;;;;;1.00;0.70;;;25.10;99.90;;;;;;5054373;28;20217;-80
2022/08/31 11:34:14;;;;;;;1.30;0.70;;;25.20;99.90;;;;;;5054448;28;20307;-84
2022/08/31 11:36:52;;;;;;;1.08;0.82;;;25.20;99.90;;;;;;5068100;28;20250;-80
2022/08/31 11:39:34;;;;;;;0.82;0.55;;;25.30;99.90;;;;;;5074426;28;20243;-79
2022/08/31 11:42:05;;;;;;;0.98;0.63;;;25.30;99.90;;;;;;5074914;28;20193;-81
2022/08/31 11:44:46;;;;;;;3.35;0.65;;;25.30;99.90;;;;;;5072879;28;20204;-83
2022/08/31 11:47:42;;;;;;;1.00;0.70;;;25.40;99.90;;;;;;5054581;28;20267;-79
2022/08/31 11:50:53;;;;;;;2.42;0.90;;;25.30;99.90;;;;;;5053454;28;20221;-81
2022/08/31 11:53:28;;;;;;;1.42;0.70;;;25.10;99.90;;;;;;5028687;28;20621;-81
2022/08/31 11:55:58;;;;;;;1.38;0.60;;;25.00;99.90;;;;;;5054667;28;20251;-79
2022/08/31 11:58:33;;;;;;;4.40;0.70;;;25.00;99.90;;;;;;5053833;28;20583;-81
2022/08/31 12:01:05;;;;;;;1.10;0.65;;;25.00;99.90;;;;;;5054252;28;20194;-79
2022/08/31 12:03:55;;;;;;;1.02;0.70;;;25.20;99.90;;;;;;5063541;28;20217;-80
2022/08/31 12:06:58;;;;;;;0.80;0.70;;;25.10;99.90;;;;;;5067872;28;20212;-80
2022/08/31 12:09:52;;;;;;;1.15;0.70;;;25.10;99.90;;;;;;5069906;28;20243;-82
2022/08/31 12:12:33;;;;;;;2.60;0.80;;;25.00;99.90;;;;;;5053568;28;20194;-79
2022/08/31 12:15:10;;;;;;;2.17;0.68;;;25.10;99.90;;;;;;5067673;28;20203;-79
2022/08/31 12:17:50;;;;;;;1.73;0.80;;;25.10;99.90;;;;;;5073831;28;20271;-79
2022/08/31 12:20:25;;;;;;;2.38;0.82;;;25.20;99.90;;;;;;5073859;28;20243;-81
2022/08/31 12:23:36;;;;;;;1.67;1.00;;;25.10;99.90;;;;;;5073401;28;20201;-79
2022/08/31 12:26:10;;;;;;;3.17;0.80;;;25.20;99.90;;;;;;5073258;28;20209;-78
2022/08/31 12:28:54;;;;;;;2.83;0.90;;;25.50;99.90;;;;;;5073258;28;20271;-81
2022/08/31 12:31:23;;;;;;;2.90;1.00;;;25.60;99.90;;;;;;5073416;28;20543;-80
2022/08/31 12:33:59;;;;;;;2.00;0.80;;;25.70;99.90;;;;;;5073336;28;20215;-80
2022/08/31 12:36:28;;;;;;;2.90;0.65;;;25.70;99.90;;;;;;5074401;28;20280;-82
2022/08/31 12:39:09;;;;;;;1.67;0.80;;;25.50;99.90;;;;;;5073202;28;20229;-79
2022/08/31 12:41:42;;;;;;;2.03;0.80;;;25.50;99.90;;;;;;5074221;28;20242;-80
2022/08/31 12:44:09;;;;;;;5.05;1.02;;;25.40;99.90;;;;;;5073850;28;20197;-82
2022/08/31 12:46:57;;;;;;;1.13;0.60;;;25.30;99.90;;;;;;5072710;28;20197;-81
2022/08/31 12:49:45;;;;;;;4.20;0.70;;;25.20;99.90;;;;;;5053677;28;20201;-81
2022/08/31 12:52:21;;;;;;;0.98;0.60;;;25.10;99.90;;;;;;5053202;28;20186;-78
2022/08/31 12:55:07;;;;;;;2.90;0.85;;;25.00;99.90;;;;;;5061209;28;20197;-81
2022/08/31 12:57:50;;;;;;;1.95;0.88;;;25.20;99.90;;;;;;5073746;28;20200;-78
2022/08/31 13:00:29;;;;;;;0.75;0.68;;;25.20;99.90;;;;;;5072620;28;20460;-81
2022/08/31 13:03:07;;;;;;;3.72;1.00;;;25.10;99.90;;;;;;5055212;28;20232;-81
2022/08/31 13:05:36;;;;;;;0.82;0.68;;;25.10;99.90;;;;;;5053607;28;20228;-79
2022/08/31 13:08:19;;;;;;;2.30;0.70;;;25.00;99.90;;;;;;5071405;28;20205;-79
2022/08/31 13:10:46;;;;;;;3.70;0.95;;;25.10;99.90;;;;;;5073134;28;20509;-78
2022/08/31 13:13:24;;;;;;;2.03;0.70;;;25.10;99.90;;;;;;5072973;28;20660;-80
2022/08/31 13:15:58;;;;;;;4.15;0.80;;;25.10;99.90;;;;;;5072403;28;20196;-79
2022/08/31 13:18:29;;;;;;;2.28;0.60;;;25.10;99.90;;;;;;5073456;28;20193;-78
2022/08/31 13:21:01;;;;;;;2.15;0.70;;;25.20;99.90;;;;;;5069503;28;20206;-83